Time;durP1;ratioP1;P1;durP2;ratioP2;P2;SDS_P1;SDS_P2;PMS_P1;PMS_P2;Temp;Humidity;BMP_temperature;BMP_pressure;BME280_temperature;BME280_humidity;BME280_pressure;Samples;Min_cycle;Max_cycle;Signal;HPM_P1;HPM_P2
2022/02/06 00:01:21;;;;;;;1.63;0.50;;;;;;;;;;5032079;28;20026;-56
2022/02/06 00:03:46;;;;;;;1.58;0.45;;;;;;;;;;5033342;28;20115;-60
2022/02/06 00:06:11;;;;;;;5.28;0.68;;;;;;;;;;5033576;28;20033;-59
2022/02/06 00:08:38;;;;;;;2.17;0.55;;;;;;;;;;5027283;28;20045;-60
2022/02/06 00:11:05;;;;;;;2.22;0.40;;;;;;;;;;5026286;28;20108;-59
2022/02/06 00:13:30;;;;;;;3.97;0.60;;;;;;;;;;5033230;28;20116;-59
2022/02/06 00:15:55;;;;;;;4.30;0.30;;;;;;;;;;5034426;28;20164;-59
2022/02/06 00:18:20;;;;;;;3.63;0.50;;;;;;;;;;5031841;28;20032;-59
2022/02/06 00:20:57;;;;;;;2.75;0.52;;;;;;;;;;5031521;28;20025;-59
2022/02/06 00:23:25;;;;;;;1.45;0.40;;;;;;;;;;5040270;28;20110;-58
2022/02/06 00:25:58;;;;;;;3.58;0.30;;;;;;;;;;5053046;28;20103;-58
2022/02/06 00:28:39;;;;;;;1.50;0.40;;;;;;;;;;5041892;28;20048;-59
2022/02/06 00:33:42;;;;;;;1.83;0.63;;;;;;;;;;5033667;28;20102;-59
2022/02/06 00:41:22;;;;;;;1.67;0.40;;;;;;;;;;5052876;28;20412;-59
2022/02/06 00:43:48;;;;;;;3.90;0.57;;;;;;;;;;5020860;28;20026;-60
2022/02/06 00:46:16;;;;;;;1.20;0.30;;;;;;;;;;5013936;28;20030;-58
2022/02/06 00:48:45;;;;;;;2.22;0.50;;;;;;;;;;5024819;28;20048;-58
2022/02/06 00:53:35;;;;;;;3.13;0.65;;;;;;;;;;5034985;28;20049;-59
2022/02/06 00:56:01;;;;;;;2.75;0.68;;;;;;;;;;5041466;28;20025;-59
2022/02/06 00:58:26;;;;;;;4.32;0.95;;;;;;;;;;5041022;28;20032;-59
2022/02/06 01:00:51;;;;;;;2.55;0.50;;;;;;;;;;5034666;28;20033;-58
2022/02/06 01:03:16;;;;;;;2.75;0.45;;;;;;;;;;5032377;28;20446;-59
2022/02/06 01:05:41;;;;;;;4.20;0.82;;;;;;;;;;5032854;28;20398;-58
2022/02/06 01:08:07;;;;;;;1.40;0.40;;;;;;;;;;5034486;28;20045;-59
2022/02/06 01:10:33;;;;;;;1.70;0.30;;;;;;;;;;5052526;28;20020;-58
2022/02/06 01:13:12;;;;;;;3.58;0.50;;;;;;;;;;5048142;28;20130;-59
2022/02/06 01:15:37;;;;;;;2.72;0.63;;;;;;;;;;5012958;28;20088;-58
2022/02/06 01:18:07;;;;;;;2.75;0.47;;;;;;;;;;5031046;28;20025;-59
2022/02/06 01:20:37;;;;;;;3.58;0.82;;;;;;;;;;5030439;28;20017;-58
2022/02/06 01:23:29;;;;;;;4.38;0.40;;;;;;;;;;5043704;28;20473;-58
2022/02/06 01:25:59;;;;;;;5.60;0.70;;;;;;;;;;5039398;28;20033;-59
2022/02/06 01:28:42;;;;;;;3.08;0.40;;;;;;;;;;5046119;28;20029;-58
2022/02/06 01:34:06;;;;;;;4.20;0.60;;;;;;;;;;5012959;28;20483;-59
2022/02/06 01:36:44;;;;;;;3.70;0.63;;;;;;;;;;5032023;28;20033;-59
2022/02/06 01:41:40;;;;;;;3.83;0.70;;;;;;;;;;5052533;28;20032;-59
2022/02/06 01:44:12;;;;;;;3.38;0.60;;;;;;;;;;5032974;28;20025;-59
2022/02/06 01:57:09;;;;;;;3.65;0.60;;;;;;;;;;5032409;28;20026;-59
2022/02/06 02:23:45;;;;;;;1.52;0.50;;;;;;;;;;5041528;28;20021;-59
2022/02/06 02:47:23;;;;;;;2.05;0.60;;;;;;;;;;5035720;28;20013;-59
2022/02/06 02:49:55;;;;;;;3.72;0.60;;;;;;;;;;5034524;28;20036;-59
2022/02/06 02:55:29;;;;;;;4.75;0.50;;;;;;;;;;5047212;28;20108;-58
2022/02/06 03:02:46;;;;;;;2.65;0.38;;;;;;;;;;5028542;28;20034;-59
2022/02/06 03:05:11;;;;;;;1.85;0.40;;;;;;;;;;5035068;28;20029;-59
2022/02/06 03:07:36;;;;;;;6.15;0.40;;;;;;;;;;5033592;28;20032;-59
2022/02/06 03:10:02;;;;;;;4.80;0.57;;;;;;;;;;5052180;28;20025;-58
2022/02/06 03:12:29;;;;;;;2.90;0.50;;;;;;;;;;5050389;28;20079;-59
2022/02/06 03:15:04;;;;;;;4.68;0.60;;;;;;;;;;5034845;28;20035;-58
2022/02/06 03:17:36;;;;;;;5.80;0.57;;;;;;;;;;5034156;28;20466;-58
2022/02/06 03:20:10;;;;;;;4.10;0.47;;;;;;;;;;5014584;28;20029;-58
2022/02/06 03:22:48;;;;;;;1.38;0.20;;;;;;;;;;5013627;28;20072;-58
2022/02/06 03:25:18;;;;;;;2.25;0.30;;;;;;;;;;5014572;28;20061;-59
2022/02/06 03:27:44;;;;;;;3.83;0.40;;;;;;;;;;5023493;28;20070;-58
2022/02/06 03:30:09;;;;;;;6.25;0.52;;;;;;;;;;5027379;28;20057;-59
2022/02/06 03:32:34;;;;;;;3.88;0.40;;;;;;;;;;5017389;28;20030;-59
2022/02/06 03:35:00;;;;;;;4.43;0.60;;;;;;;;;;5033710;28;20038;-52
2022/02/06 03:37:25;;;;;;;2.40;0.40;;;;;;;;;;5034721;28;20025;-58
2022/02/06 03:39:53;;;;;;;3.35;0.30;;;;;;;;;;5016791;28;20026;-56
2022/02/06 03:42:18;;;;;;;2.38;0.30;;;;;;;;;;5014744;28;20026;-59
2022/02/06 03:44:49;;;;;;;7.47;0.77;;;;;;;;;;5032715;28;20417;-58
2022/02/06 03:47:23;;;;;;;3.90;0.80;;;;;;;;;;5034109;28;20463;-58
2022/02/06 03:50:03;;;;;;;2.53;0.30;;;;;;;;;;5033684;28;20084;-59
2022/02/06 03:52:37;;;;;;;2.45;0.30;;;;;;;;;;5029935;28;20029;-59
2022/02/06 03:55:03;;;;;;;1.85;0.30;;;;;;;;;;5033178;28;20053;-59
2022/02/06 03:57:28;;;;;;;2.35;0.73;;;;;;;;;;5033689;28;20026;-59
2022/02/06 03:59:53;;;;;;;2.17;0.50;;;;;;;;;;5028475;28;20159;-59
2022/02/06 04:02:19;;;;;;;4.53;0.35;;;;;;;;;;5028005;28;20034;-59
2022/02/06 04:04:44;;;;;;;2.03;0.50;;;;;;;;;;5033641;28;20029;-59
2022/02/06 04:07:12;;;;;;;3.58;0.50;;;;;;;;;;5033801;28;20029;-59
2022/02/06 04:09:57;;;;;;;2.75;0.30;;;;;;;;;;5033229;28;20037;-59
2022/02/06 04:12:23;;;;;;;2.72;0.65;;;;;;;;;;5033948;28;20021;-59
2022/02/06 04:14:58;;;;;;;3.42;0.30;;;;;;;;;;5033225;28;20084;-59
2022/02/06 04:17:28;;;;;;;3.78;0.40;;;;;;;;;;5033750;28;20029;-58
2022/02/06 04:19:53;;;;;;;1.58;0.50;;;;;;;;;;5032410;28;20021;-58
2022/02/06 04:22:19;;;;;;;2.97;0.38;;;;;;;;;;5036318;28;20029;-59
2022/02/06 04:24:44;;;;;;;2.22;0.50;;;;;;;;;;5038581;28;20470;-58
2022/02/06 04:27:09;;;;;;;1.90;0.40;;;;;;;;;;5050760;28;20053;-59
2022/02/06 04:29:35;;;;;;;6.10;0.43;;;;;;;;;;5039742;28;20438;-59
2022/02/06 04:32:02;;;;;;;2.67;0.30;;;;;;;;;;5036143;28;20045;-59
2022/02/06 04:34:29;;;;;;;1.88;0.30;;;;;;;;;;5031910;28;20087;-58
2022/02/06 04:48:07;;;;;;;2.90;0.70;;;;;;;;;;5033498;28;20040;-57
2022/02/06 04:56:00;;;;;;;1.45;0.20;;;;;;;;;;5040368;28;20373;-57
2022/02/06 05:14:40;;;;;;;1.13;0.13;;;;;;;;;;5025848;28;20096;-59
2022/02/06 05:22:43;;;;;;;2.55;0.40;;;;;;;;;;5032941;28;20580;-59
2022/02/06 05:30:14;;;;;;;2.67;0.20;;;;;;;;;;5033826;28;20273;-59
2022/02/06 05:32:51;;;;;;;3.88;0.55;;;;;;;;;;5032035;28;20466;-60
2022/02/06 05:35:16;;;;;;;0.95;0.20;;;;;;;;;;5032252;28;20477;-57
2022/02/06 05:37:41;;;;;;;2.45;0.20;;;;;;;;;;5032078;28;20025;-56
2022/02/06 05:40:06;;;;;;;1.70;0.20;;;;;;;;;;5015621;28;20486;-60
2022/02/06 05:42:32;;;;;;;1.45;0.20;;;;;;;;;;5026405;28;20025;-59
2022/02/06 05:44:57;;;;;;;1.20;0.10;;;;;;;;;;5031611;28;20045;-59
2022/02/06 05:47:23;;;;;;;1.90;0.30;;;;;;;;;;5031850;28;20064;-58
2022/02/06 05:49:49;;;;;;;0.35;0.10;;;;;;;;;;5031563;28;20033;-59
2022/02/06 05:52:14;;;;;;;0.63;0.10;;;;;;;;;;5028403;28;20022;-58
2022/02/06 05:54:39;;;;;;;1.85;0.20;;;;;;;;;;5039538;28;20081;-58
2022/02/06 05:57:05;;;;;;;0.70;0.10;;;;;;;;;;5014917;28;20040;-58
2022/02/06 05:59:30;;;;;;;2.00;0.10;;;;;;;;;;5015202;28;20046;-58
2022/02/06 06:01:55;;;;;;;0.85;0.10;;;;;;;;;;5031983;28;20030;-58
2022/02/06 06:04:20;;;;;;;1.60;0.10;;;;;;;;;;5028815;28;20419;-59
2022/02/06 06:06:45;;;;;;;1.80;0.13;;;;;;;;;;5031677;28;20478;-59
2022/02/06 06:09:11;;;;;;;0.85;0.10;;;;;;;;;;5042639;28;20040;-59
2022/02/06 06:11:36;;;;;;;0.52;0.10;;;;;;;;;;5035990;28;20039;-59
2022/02/06 06:14:01;;;;;;;1.45;0.10;;;;;;;;;;5031271;28;20021;-58
2022/02/06 06:16:26;;;;;;;0.60;0.10;;;;;;;;;;5031714;28;20474;-58
2022/02/06 06:18:52;;;;;;;1.00;0.10;;;;;;;;;;5031335;28;20021;-59
2022/02/06 06:21:19;;;;;;;2.15;0.10;;;;;;;;;;5027456;28;20449;-59
2022/02/06 06:23:45;;;;;;;1.05;0.10;;;;;;;;;;5030710;28;20026;-59
2022/02/06 06:26:15;;;;;;;1.38;0.43;;;;;;;;;;5030957;28;20521;-59
2022/02/06 06:28:40;;;;;;;0.20;0.10;;;;;;;;;;5031257;28;20037;-59
2022/02/06 06:31:05;;;;;;;1.48;0.20;;;;;;;;;;5031306;28;20021;-58
2022/02/06 06:33:30;;;;;;;0.50;0.08;;;;;;;;;;5031419;28;20046;-59
2022/02/06 06:35:56;;;;;;;0.70;0.10;;;;;;;;;;5031763;28;20104;-60
2022/02/06 06:38:21;;;;;;;0.30;0.10;;;;;;;;;;5031432;28;20100;-57
2022/02/06 06:40:46;;;;;;;1.42;0.20;;;;;;;;;;5031539;28;20040;-58
2022/02/06 06:43:11;;;;;;;0.73;0.10;;;;;;;;;;5031021;28;20470;-58
2022/02/06 06:45:37;;;;;;;0.60;0.10;;;;;;;;;;5031415;28;20013;-59
2022/02/06 06:48:03;;;;;;;2.50;0.20;;;;;;;;;;5031507;28;20398;-59
2022/02/06 06:50:33;;;;;;;0.80;0.10;;;;;;;;;;5029782;28;20065;-58
2022/02/06 06:52:58;;;;;;;1.27;0.20;;;;;;;;;;5022839;28;20033;-60
2022/02/06 06:55:26;;;;;;;1.70;0.40;;;;;;;;;;5030138;28;20438;-59
2022/02/06 06:57:57;;;;;;;2.05;0.20;;;;;;;;;;5030033;28;20498;-58
2022/02/06 07:01:20;;;;;;;3.60;0.32;;;;;;;;;;5020815;28;20018;-59
2022/02/06 07:03:11;;;;;;;1.08;0.20;;;;;;;;;;5024367;28;20111;-57
2022/02/06 07:05:36;;;;;;;2.78;0.32;;;;;;;;;;5028874;28;20057;-59
2022/02/06 07:08:02;;;;;;;2.67;0.30;;;;;;;;;;5032072;28;20489;-58
2022/02/06 07:10:27;;;;;;;1.58;0.30;;;;;;;;;;5034426;28;20036;-59
2022/02/06 07:12:52;;;;;;;2.13;0.30;;;;;;;;;;5031095;28;20021;-58
2022/02/06 07:15:17;;;;;;;1.50;0.30;;;;;;;;;;5032318;28;20036;-60
2022/02/06 07:17:43;;;;;;;2.28;0.30;;;;;;;;;;5034619;28;20375;-59
2022/02/06 07:20:08;;;;;;;1.90;0.32;;;;;;;;;;5034026;28;20056;-59
2022/02/06 07:22:36;;;;;;;3.45;0.50;;;;;;;;;;5021758;28;20471;-59
2022/02/06 07:25:01;;;;;;;0.77;0.28;;;;;;;;;;5014695;28;20021;-57
2022/02/06 07:27:30;;;;;;;1.33;0.38;;;;;;;;;;5044989;28;20072;-59
2022/02/06 07:29:57;;;;;;;2.78;0.20;;;;;;;;;;5038970;28;20029;-60
2022/02/06 07:32:23;;;;;;;2.67;0.60;;;;;;;;;;5035491;28;20099;-58
2022/02/06 07:34:48;;;;;;;1.92;0.32;;;;;;;;;;5034705;28;20525;-59
2022/02/06 07:37:13;;;;;;;1.55;0.52;;;;;;;;;;5033885;28;20034;-59
2022/02/06 07:39:38;;;;;;;1.85;0.30;;;;;;;;;;5047476;28;20041;-59
2022/02/06 07:42:04;;;;;;;2.90;0.28;;;;;;;;;;5038816;28;20022;-59
2022/02/06 07:44:29;;;;;;;3.00;1.00;;;;;;;;;;5033823;28;20535;-61
2022/02/06 07:47:02;;;;;;;4.68;0.32;;;;;;;;;;5034302;28;20438;-60
2022/02/06 07:49:27;;;;;;;1.23;0.30;;;;;;;;;;5033463;28;20086;-61
2022/02/06 07:51:53;;;;;;;2.72;0.50;;;;;;;;;;5038295;28;20537;-58
2022/02/06 07:54:18;;;;;;;1.38;0.17;;;;;;;;;;5047760;28;20052;-59
2022/02/06 07:56:43;;;;;;;1.77;0.45;;;;;;;;;;5053662;28;20033;-61
2022/02/06 07:59:08;;;;;;;0.88;0.25;;;;;;;;;;5036676;28;20081;-60
2022/02/06 08:01:34;;;;;;;1.88;0.30;;;;;;;;;;5052493;28;20028;-61
2022/02/06 08:03:59;;;;;;;2.80;0.57;;;;;;;;;;5037291;28;20029;-59
2022/02/06 08:06:24;;;;;;;0.80;0.13;;;;;;;;;;5029163;28;20029;-61
2022/02/06 08:08:49;;;;;;;2.08;0.20;;;;;;;;;;5025158;28;20553;-59
2022/02/06 08:11:16;;;;;;;1.40;0.25;;;;;;;;;;5014222;28;20029;-60
2022/02/06 08:13:53;;;;;;;0.85;0.10;;;;;;;;;;5021969;28;20371;-60
2022/02/06 08:16:19;;;;;;;0.73;0.10;;;;;;;;;;5025612;28;20036;-60
2022/02/06 08:18:44;;;;;;;0.70;0.15;;;;;;;;;;5032443;28;20018;-61
2022/02/06 08:21:10;;;;;;;1.40;0.20;;;;;;;;;;5033288;28;20049;-60
2022/02/06 08:23:35;;;;;;;1.50;0.30;;;;;;;;;;5041466;28;20026;-60
2022/02/06 08:26:01;;;;;;;1.27;0.45;;;;;;;;;;5034244;28;20018;-60
2022/02/06 08:28:26;;;;;;;2.10;0.20;;;;;;;;;;5032099;28;20022;-61
2022/02/06 08:30:51;;;;;;;1.38;0.22;;;;;;;;;;5043154;28;20024;-60
2022/02/06 08:33:17;;;;;;;2.17;0.30;;;;;;;;;;5025746;28;20621;-60
2022/02/06 08:35:42;;;;;;;0.93;0.30;;;;;;;;;;5031882;28;20490;-60
2022/02/06 08:38:10;;;;;;;1.50;0.20;;;;;;;;;;5028643;28;20029;-61
2022/02/06 08:40:35;;;;;;;1.85;0.20;;;;;;;;;;5013820;28;20018;-61
2022/02/06 08:43:00;;;;;;;1.55;0.38;;;;;;;;;;5032463;28;20017;-60
2022/02/06 08:45:28;;;;;;;2.10;0.40;;;;;;;;;;5033078;28;20033;-59
2022/02/06 08:47:53;;;;;;;0.95;0.10;;;;;;;;;;5031797;28;20061;-61
2022/02/06 08:50:18;;;;;;;2.38;0.38;;;;;;;;;;5032261;28;20083;-59
2022/02/06 08:52:43;;;;;;;0.40;0.10;;;;;;;;;;5014110;28;20032;-61
2022/02/06 08:55:10;;;;;;;2.28;0.20;;;;;;;;;;5025367;28;20054;-59
2022/02/06 08:57:37;;;;;;;2.10;0.20;;;;;;;;;;5017929;28;20100;-61
2022/02/06 09:00:04;;;;;;;2.75;0.30;;;;;;;;;;5025551;28;20026;-59
2022/02/06 09:02:29;;;;;;;1.67;0.20;;;;;;;;;;5016550;28;20108;-60
2022/02/06 09:04:55;;;;;;;0.65;0.10;;;;;;;;;;5032548;28;20064;-60
2022/02/06 09:07:20;;;;;;;2.05;0.28;;;;;;;;;;5032277;28;20083;-60
2022/02/06 09:09:48;;;;;;;3.17;0.40;;;;;;;;;;5018984;28;20033;-60
2022/02/06 09:12:14;;;;;;;0.50;0.20;;;;;;;;;;5032202;28;20437;-59
2022/02/06 09:14:39;;;;;;;0.85;0.15;;;;;;;;;;5031854;28;20474;-59
2022/02/06 09:17:05;;;;;;;2.50;0.30;;;;;;;;;;5032439;28;20426;-59
2022/02/06 09:19:31;;;;;;;0.98;0.20;;;;;;;;;;5030823;28;20032;-58
2022/02/06 09:21:57;;;;;;;2.55;1.30;;;;;;;;;;5024247;28;20085;-60
2022/02/06 09:24:23;;;;;;;1.65;0.30;;;;;;;;;;5032191;28;20071;-60
2022/02/06 09:26:49;;;;;;;0.88;0.60;;;;;;;;;;5031070;28;20127;-58
2022/02/06 09:29:15;;;;;;;1.60;0.35;;;;;;;;;;5020259;28;20488;-60
2022/02/06 09:31:41;;;;;;;1.17;0.20;;;;;;;;;;5031510;28;20029;-59
2022/02/06 09:36:32;;;;;;;1.12;0.18;;;;;;;;;;5031738;28;20026;-58
2022/02/06 09:38:57;;;;;;;0.73;0.30;;;;;;;;;;5021775;28;20029;-60
2022/02/06 09:41:22;;;;;;;1.10;0.20;;;;;;;;;;5030319;28;20478;-59
2022/02/06 09:43:47;;;;;;;2.17;0.30;;;;;;;;;;5026588;28;20022;-59
2022/02/06 09:46:13;;;;;;;1.80;0.20;;;;;;;;;;5015843;28;20330;-59
2022/02/06 09:48:39;;;;;;;1.35;0.20;;;;;;;;;;5031591;28;20033;-59
2022/02/06 09:51:04;;;;;;;2.03;0.10;;;;;;;;;;5023162;28;20034;-59
2022/02/06 09:53:30;;;;;;;1.23;0.10;;;;;;;;;;5012852;28;20038;-59
2022/02/06 09:56:02;;;;;;;0.50;0.20;;;;;;;;;;5012066;28;20026;-58
2022/02/06 10:01:08;;;;;;;1.40;0.20;;;;;;;;;;5018033;28;20076;-58
2022/02/06 10:03:43;;;;;;;2.22;0.25;;;;;;;;;;5031388;28;20017;-59
2022/02/06 10:06:11;;;;;;;1.55;0.20;;;;;;;;;;5031423;28;20557;-55
2022/02/06 10:08:38;;;;;;;1.60;0.13;;;;;;;;;;5024875;28;20030;-58
2022/02/06 10:11:10;;;;;;;2.03;0.30;;;;;;;;;;5031039;28;20037;-60
2022/02/06 10:13:39;;;;;;;1.20;0.17;;;;;;;;;;5031104;28;20064;-59
2022/02/06 10:16:05;;;;;;;2.42;0.15;;;;;;;;;;5031478;28;20017;-59
2022/02/06 10:18:30;;;;;;;0.50;0.10;;;;;;;;;;5030064;28;20072;-58
2022/02/06 10:20:56;;;;;;;2.45;0.30;;;;;;;;;;5024073;28;20014;-59
2022/02/06 10:23:45;;;;;;;2.15;0.20;;;;;;;;;;5029309;28;20021;-59
2022/02/06 10:26:26;;;;;;;2.28;0.30;;;;;;;;;;5030980;28;20462;-60
2022/02/06 10:29:21;;;;;;;0.80;0.30;;;;;;;;;;5022358;28;20036;-59
2022/02/06 10:32:02;;;;;;;2.28;0.22;;;;;;;;;;5012741;28;20029;-60
2022/02/06 10:34:28;;;;;;;6.85;0.30;;;;;;;;;;5030376;28;20115;-59
2022/02/06 10:37:09;;;;;;;2.05;0.20;;;;;;;;;;5031034;28;20018;-60
2022/02/06 10:39:37;;;;;;;1.85;0.30;;;;;;;;;;5028660;28;20034;-59
2022/02/06 10:42:03;;;;;;;2.28;0.40;;;;;;;;;;5031255;28;20017;-58
2022/02/06 10:44:29;;;;;;;1.23;0.13;;;;;;;;;;5029657;28;20072;-59
2022/02/06 10:46:55;;;;;;;0.90;0.10;;;;;;;;;;5031031;28;20045;-59
2022/02/06 10:49:21;;;;;;;1.13;0.20;;;;;;;;;;5032470;28;20054;-59
2022/02/06 10:51:54;;;;;;;1.15;0.20;;;;;;;;;;5020891;28;20018;-59
2022/02/06 10:54:25;;;;;;;1.90;0.20;;;;;;;;;;5016023;28;20046;-59
2022/02/06 10:56:59;;;;;;;0.30;0.10;;;;;;;;;;5029511;28;20060;-58
2022/02/06 10:59:25;;;;;;;0.63;0.20;;;;;;;;;;5033676;28;20099;-59
2022/02/06 11:01:50;;;;;;;1.25;0.20;;;;;;;;;;5034889;28;20490;-59
2022/02/06 11:04:28;;;;;;;1.17;0.20;;;;;;;;;;5034257;28;20033;-59
2022/02/06 11:07:08;;;;;;;0.80;0.20;;;;;;;;;;5034791;28;20083;-60
2022/02/06 11:09:33;;;;;;;0.95;0.20;;;;;;;;;;5020673;28;20026;-61
2022/02/06 11:11:59;;;;;;;2.17;0.32;;;;;;;;;;5015112;28;20366;-59
2022/02/06 11:14:25;;;;;;;1.27;0.28;;;;;;;;;;5028693;28;20511;-60
2022/02/06 11:16:51;;;;;;;0.52;0.10;;;;;;;;;;5034505;28;20043;-61
2022/02/06 11:19:20;;;;;;;1.17;0.30;;;;;;;;;;5033866;28;20017;-58
2022/02/06 11:22:04;;;;;;;1.48;0.20;;;;;;;;;;5024467;28;20459;-60
2022/02/06 11:24:35;;;;;;;0.73;0.10;;;;;;;;;;5032182;28;20026;-59
2022/02/06 11:27:00;;;;;;;0.93;0.30;;;;;;;;;;5032859;28;20075;-59
2022/02/06 11:29:26;;;;;;;1.48;0.20;;;;;;;;;;5033314;28;20022;-60
2022/02/06 11:31:53;;;;;;;0.35;0.10;;;;;;;;;;5034229;28;20120;-60
2022/02/06 11:34:20;;;;;;;1.20;0.10;;;;;;;;;;5034236;28;20037;-58
2022/02/06 11:45:28;;;;;;;0.45;0.03;;;;;;;;;;5030056;28;20064;-56
2022/02/06 11:47:59;;;;;;;1.48;0.20;;;;;;;;;;5033734;28;20057;-58
2022/02/06 11:50:24;;;;;;;1.25;0.10;;;;;;;;;;5033589;28;20474;-59
2022/02/06 11:52:54;;;;;;;1.33;0.43;;;;;;;;;;5017244;28;20026;-58
2022/02/06 11:55:39;;;;;;;0.25;0.10;;;;;;;;;;5023112;28;20050;-59
2022/02/06 11:58:21;;;;;;;0.43;0.10;;;;;;;;;;5031566;28;20045;-59
2022/02/06 12:01:06;;;;;;;1.95;0.15;;;;;;;;;;5031211;28;20061;-60
2022/02/06 12:03:51;;;;;;;0.75;0.08;;;;;;;;;;5033721;28;20018;-60
2022/02/06 12:06:20;;;;;;;1.02;0.10;;;;;;;;;;5034000;28;20045;-58
2022/02/06 12:08:57;;;;;;;0.10;0.00;;;;;;;;;;5031675;28;20093;-59
2022/02/06 12:11:23;;;;;;;0.90;0.00;;;;;;;;;;5033186;28;20065;-59
2022/02/06 12:14:06;;;;;;;0.52;0.08;;;;;;;;;;5033039;28;20067;-58
2022/02/06 12:16:39;;;;;;;0.30;0.00;;;;;;;;;;5033007;28;20021;-58
2022/02/06 12:19:23;;;;;;;0.20;0.10;;;;;;;;;;5032697;28;20028;-59
2022/02/06 12:21:48;;;;;;;0.37;0.00;;;;;;;;;;5026612;28;20024;-59
2022/02/06 12:24:33;;;;;;;0.32;0.10;;;;;;;;;;5032620;28;20025;-59
2022/02/06 12:27:18;;;;;;;0.20;0.10;;;;;;;;;;5033044;28;20022;-58
2022/02/06 12:29:49;;;;;;;0.50;0.08;;;;;;;;;;5028029;28;20038;-57
2022/02/06 12:32:27;;;;;;;0.57;0.00;;;;;;;;;;5021330;28;20501;-59
2022/02/06 12:37:37;;;;;;;0.40;0.00;;;;;;;;;;5033414;28;20132;-59
2022/02/06 12:40:05;;;;;;;0.57;0.10;;;;;;;;;;5032612;28;20021;-58
2022/02/06 12:42:41;;;;;;;0.00;0.00;;;;;;;;;;5031784;28;20040;-60
2022/02/06 12:45:09;;;;;;;0.98;0.30;;;;;;;;;;5031249;28;20025;-60
2022/02/06 12:47:37;;;;;;;0.13;0.00;;;;;;;;;;5032325;28;20489;-59
2022/02/06 12:50:11;;;;;;;0.60;0.00;;;;;;;;;;5030972;28;20021;-60
2022/02/06 12:52:36;;;;;;;0.85;0.10;;;;;;;;;;5012990;28;20040;-60
2022/02/06 12:55:02;;;;;;;0.13;0.00;;;;;;;;;;5028783;28;20058;-59
2022/02/06 12:57:28;;;;;;;0.38;0.03;;;;;;;;;;5023516;28;20386;-59
2022/02/06 12:59:53;;;;;;;0.00;0.00;;;;;;;;;;5026600;28;20045;-60
2022/02/06 13:02:22;;;;;;;0.50;0.08;;;;;;;;;;5031283;28;20022;-60
2022/02/06 13:05:00;;;;;;;0.10;0.00;;;;;;;;;;5032321;28;20041;-59
2022/02/06 13:07:30;;;;;;;0.40;0.00;;;;;;;;;;5031392;28;20351;-59
2022/02/06 13:10:02;;;;;;;0.65;0.10;;;;;;;;;;5031817;28;20202;-59
2022/02/06 13:12:33;;;;;;;0.30;0.10;;;;;;;;;;5030729;28;20017;-59
2022/02/06 13:15:41;;;;;;;0.43;0.00;;;;;;;;;;5031590;28;20485;-59
2022/02/06 13:18:10;;;;;;;0.10;0.00;;;;;;;;;;5032118;28;20136;-60
2022/02/06 13:20:49;;;;;;;;;;;;;;;;;;5028102;28;20065;-59
2022/02/06 13:23:26;;;;;;;2.05;0.10;;;;;;;;;;5033157;28;20320;-58
2022/02/06 13:29:01;;;;;;;0.68;0.00;;;;;;;;;;5028374;28;20375;-59
2022/02/06 13:34:20;;;;;;;0.00;0.00;;;;;;;;;;5030641;28;20426;-58
2022/02/06 13:36:51;;;;;;;0.00;0.00;;;;;;;;;;5031757;28;20473;-64
2022/02/06 13:39:25;;;;;;;0.00;0.00;;;;;;;;;;5031578;28;20029;-64
2022/02/06 13:41:51;;;;;;;0.20;0.00;;;;;;;;;;5031517;28;20025;-62
2022/02/06 13:44:19;;;;;;;0.65;0.00;;;;;;;;;;5031077;28;20091;-63
2022/02/06 13:46:45;;;;;;;0.45;0.00;;;;;;;;;;5031864;28;20033;-63
2022/02/06 13:49:11;;;;;;;0.10;0.00;;;;;;;;;;5031321;28;20080;-63
2022/02/06 13:51:49;;;;;;;0.20;0.00;;;;;;;;;;5023649;28;20025;-63
2022/02/06 13:54:15;;;;;;;0.30;0.08;;;;;;;;;;5030559;28;20132;-63
2022/02/06 13:56:40;;;;;;;0.45;0.00;;;;;;;;;;5024045;28;20511;-63
2022/02/06 13:59:07;;;;;;;0.03;0.00;;;;;;;;;;5031019;28;20036;-63
2022/02/06 14:01:55;;;;;;;0.10;0.00;;;;;;;;;;5030640;28;20042;-62
2022/02/06 14:04:31;;;;;;;0.30;0.00;;;;;;;;;;5031119;28;20025;-62
2022/02/06 14:07:23;;;;;;;0.57;0.10;;;;;;;;;;5030815;28;20028;-62
2022/02/06 14:10:14;;;;;;;0.10;0.00;;;;;;;;;;5030961;28;20029;-63
2022/02/06 14:12:49;;;;;;;1.55;0.22;;;;;;;;;;5031184;28;20092;-63
2022/02/06 14:15:22;;;;;;;0.57;0.00;;;;;;;;;;5030794;28;20104;-63
2022/02/06 14:17:49;;;;;;;0.00;0.00;;;;;;;;;;5030384;28;20028;-62
2022/02/06 14:20:18;;;;;;;0.00;0.00;;;;;;;;;;5028887;28;20022;-64
2022/02/06 14:22:45;;;;;;;0.03;0.00;;;;;;;;;;5023933;28;20031;-64
2022/02/06 14:25:12;;;;;;;0.10;0.00;;;;;;;;;;5031326;28;20025;-64
2022/02/06 14:27:39;;;;;;;0.00;0.00;;;;;;;;;;5026401;28;20030;-63
2022/02/06 14:30:15;;;;;;;0.55;0.00;;;;;;;;;;5014922;28;20025;-63
2022/02/06 14:32:58;;;;;;;0.00;0.00;;;;;;;;;;5032201;28;20025;-64
2022/02/06 14:35:28;;;;;;;0.00;0.00;;;;;;;;;;5035375;28;20029;-61
2022/02/06 14:37:57;;;;;;;0.40;0.00;;;;;;;;;;5033705;28;20433;-63
2022/02/06 14:40:36;;;;;;;0.00;0.00;;;;;;;;;;5015669;28;20108;-62
2022/02/06 14:43:14;;;;;;;0.00;0.00;;;;;;;;;;5035042;28;20072;-64
2022/02/06 14:45:54;;;;;;;0.10;0.00;;;;;;;;;;5034806;28;20408;-64
2022/02/06 14:48:20;;;;;;;0.00;0.00;;;;;;;;;;5034727;28;20033;-62
2022/02/06 14:50:45;;;;;;;0.00;0.00;;;;;;;;;;5020355;28;20399;-62
2022/02/06 14:53:11;;;;;;;0.00;0.00;;;;;;;;;;5022105;28;20180;-62
2022/02/06 14:55:36;;;;;;;0.22;0.00;;;;;;;;;;5014952;28;20052;-64
2022/02/06 14:58:02;;;;;;;0.00;0.00;;;;;;;;;;5030204;28;20041;-64
2022/02/06 15:00:27;;;;;;;0.98;0.00;;;;;;;;;;5025158;28;20080;-62
2022/02/06 15:02:52;;;;;;;0.28;0.00;;;;;;;;;;5029998;28;20025;-64
2022/02/06 15:05:17;;;;;;;0.10;0.00;;;;;;;;;;5034818;28;20029;-64
2022/02/06 15:07:42;;;;;;;0.47;0.00;;;;;;;;;;5033548;28;20099;-63
2022/02/06 15:10:08;;;;;;;0.90;0.00;;;;;;;;;;5016085;28;20034;-64
2022/02/06 15:12:34;;;;;;;0.10;0.00;;;;;;;;;;5033405;28;20022;-65
2022/02/06 15:14:59;;;;;;;0.00;0.00;;;;;;;;;;5033150;28;20017;-67
2022/02/06 15:17:24;;;;;;;0.20;0.10;;;;;;;;;;5034270;28;20034;-65
2022/02/06 15:19:50;;;;;;;0.10;0.00;;;;;;;;;;5034033;28;20041;-64
2022/02/06 15:22:15;;;;;;;0.00;0.00;;;;;;;;;;5024302;28;20033;-62
2022/02/06 15:24:40;;;;;;;0.00;0.00;;;;;;;;;;5031922;28;20077;-63
2022/02/06 15:27:06;;;;;;;0.10;0.00;;;;;;;;;;5029197;28;20041;-65
2022/02/06 15:29:31;;;;;;;0.40;0.00;;;;;;;;;;5029468;28;20021;-64
2022/02/06 15:31:56;;;;;;;0.00;0.00;;;;;;;;;;5034000;28;20045;-64
2022/02/06 15:34:22;;;;;;;0.32;0.00;;;;;;;;;;5033935;28;20049;-66
2022/02/06 15:36:52;;;;;;;0.00;0.00;;;;;;;;;;5031737;28;20029;-66
2022/02/06 15:39:23;;;;;;;0.20;0.00;;;;;;;;;;5032691;28;20051;-66
2022/02/06 15:41:51;;;;;;;0.00;0.00;;;;;;;;;;5021549;28;20063;-60
2022/02/06 15:44:17;;;;;;;0.00;0.00;;;;;;;;;;5024458;28;20047;-60
2022/02/06 15:46:42;;;;;;;0.00;0.00;;;;;;;;;;5034382;28;20071;-61
2022/02/06 15:49:07;;;;;;;0.00;0.00;;;;;;;;;;5031660;28;20405;-61
2022/02/06 15:51:32;;;;;;;1.25;0.00;;;;;;;;;;5026523;28;20029;-59
2022/02/06 15:53:58;;;;;;;0.00;0.00;;;;;;;;;;5030329;28;20128;-60
2022/02/06 15:56:23;;;;;;;0.00;0.00;;;;;;;;;;5028198;28;20033;-60
2022/02/06 15:58:48;;;;;;;0.15;0.00;;;;;;;;;;5021032;28;20091;-60
2022/02/06 16:01:14;;;;;;;0.13;0.08;;;;;;;;;;5029589;28;20022;-60
2022/02/06 16:03:39;;;;;;;0.00;0.00;;;;;;;;;;5033902;28;20045;-61
2022/02/06 16:06:05;;;;;;;0.00;0.00;;;;;;;;;;5033637;28;20120;-60
2022/02/06 16:08:30;;;;;;;0.00;0.00;;;;;;;;;;5033490;28;20108;-62
2022/02/06 16:10:55;;;;;;;0.00;0.00;;;;;;;;;;5032894;28;20025;-60
2022/02/06 16:13:21;;;;;;;0.10;0.00;;;;;;;;;;5033531;28;20160;-61
2022/02/06 16:15:46;;;;;;;0.00;0.00;;;;;;;;;;5019828;28;20483;-63
2022/02/06 16:18:11;;;;;;;0.03;0.00;;;;;;;;;;5031309;28;20033;-63
2022/02/06 16:20:37;;;;;;;0.52;0.00;;;;;;;;;;5030333;28;20032;-63
2022/02/06 16:23:02;;;;;;;0.00;0.00;;;;;;;;;;5012161;28;20026;-56
2022/02/06 16:25:27;;;;;;;6.45;0.10;;;;;;;;;;5029851;28;20109;-62
2022/02/06 16:27:52;;;;;;;0.00;0.00;;;;;;;;;;5026947;28;20025;-60
2022/02/06 16:30:17;;;;;;;0.00;0.00;;;;;;;;;;5024840;28;20475;-61
2022/02/06 16:32:43;;;;;;;0.03;0.00;;;;;;;;;;5023152;28;20017;-62
2022/02/06 16:35:08;;;;;;;0.00;0.00;;;;;;;;;;5033210;28;20024;-63
2022/02/06 16:37:34;;;;;;;0.00;0.00;;;;;;;;;;5032854;28;20025;-61
2022/02/06 16:40:00;;;;;;;0.75;0.10;;;;;;;;;;5015734;28;20026;-62
2022/02/06 16:42:25;;;;;;;0.45;0.00;;;;;;;;;;5028886;28;20028;-61
2022/02/06 16:44:52;;;;;;;0.00;0.00;;;;;;;;;;5032638;28;20120;-58
2022/02/06 16:47:18;;;;;;;0.00;0.00;;;;;;;;;;5031919;28;20021;-59
2022/02/06 16:49:43;;;;;;;0.00;0.00;;;;;;;;;;5021116;28;20103;-59
2022/02/06 16:52:08;;;;;;;0.00;0.00;;;;;;;;;;5019683;28;20025;-60
2022/02/06 16:54:34;;;;;;;0.15;0.00;;;;;;;;;;5031970;28;20596;-60
2022/02/06 16:57:00;;;;;;;0.10;0.10;;;;;;;;;;5032272;28;20079;-61
2022/02/06 16:59:26;;;;;;;0.10;0.00;;;;;;;;;;5028404;28;20034;-60
2022/02/06 17:01:52;;;;;;;0.00;0.00;;;;;;;;;;5032199;28;20025;-60
2022/02/06 17:04:17;;;;;;;0.17;0.00;;;;;;;;;;5037393;28;20021;-61
2022/02/06 17:06:43;;;;;;;1.55;0.00;;;;;;;;;;5031274;28;20033;-59
2022/02/06 17:09:11;;;;;;;0.43;0.00;;;;;;;;;;5032413;28;20025;-60
2022/02/06 17:11:37;;;;;;;0.00;0.00;;;;;;;;;;5032549;28;20029;-61
2022/02/06 17:14:03;;;;;;;0.00;0.00;;;;;;;;;;5030572;28;20132;-57
2022/02/06 17:16:28;;;;;;;0.20;0.00;;;;;;;;;;5032005;28;20156;-60